»·PEaware :: N513DM LICC-LMML

N513DM :: LICC-LMML

FLIGHT INFORMATION

Flight Status: Arrived
Operator: Privately registered:
United States
More flights under this callsign
Pilot: Angelo R. (1452)
Aircraft: MITSUBISHI MU-2 MARQUISE
(MU2)
More flights by this aircraft type
Origin: LICC Fontanarossa
Italy
Destination: LMML Luqa
Malta
More flights between these airports :: More routes between these airports
Route:
File this flight plan on PilotEdge
Remarks:
Altitude:
(Current/Filed)
4,500ft
Speed:
(Current/Filed)
200kts
Departed: 12-Jul-14 01:21 AM
Arrived: 12-Jul-14 02:06 AM
Distance/Time
Traveled:
101nm/0:44
Distance/Time
To Go:
Arrived

Flight Plot

Page will automatically refresh every two minutes.


Map Options




Map Legend


Flown Route
Filed Route
Departure Airport
Arrival Airport
Navaid (VOR, NDB)
Fix

Horizontal Profiles

Position Reports

Time Latitude Longitude Heading Altitude Ground
Speed
12-Jul-14 01:05 37.469082 15.059066 353 43ft 0kts
12-Jul-14 01:06 37.468369 15.057039 352 43ft 0kts
12-Jul-14 01:07 37.468369 15.057039 352 43ft 0kts
12-Jul-14 01:08 37.468369 15.057039 352 43ft 0kts
12-Jul-14 01:09 37.468369 15.057039 352 43ft 0kts
12-Jul-14 01:10 37.468369 15.057039 352 43ft 0kts
12-Jul-14 01:11 37.468369 15.057039 352 43ft 0kts
12-Jul-14 01:12 37.468385 15.057038 357 43ft 0kts
12-Jul-14 01:13 37.468295 15.057163 173 43ft 1kts
12-Jul-14 01:14 37.467630 15.056868 257 43ft 3kts
12-Jul-14 01:15 37.467488 15.055158 264 43ft 7kts
12-Jul-14 01:16 37.467254 15.053199 231 43ft 4kts
12-Jul-14 01:17 37.466619 15.052458 223 43ft 0kts
12-Jul-14 01:18 37.465642 15.052112 116 43ft 5kts
12-Jul-14 01:19 37.465630 15.052680 84 43ft 16kts
12-Jul-14 01:20 37.468541 15.092990 97 1104ft 146kts
12-Jul-14 01:21 37.435819 15.121605 179 2465ft 169kts
12-Jul-14 01:22 37.385998 15.118795 182 2932ft 194kts
12-Jul-14 01:23 37.335919 15.131755 158 3343ft 180kts
12-Jul-14 01:24 37.299846 15.174016 131 3676ft 180kts
12-Jul-14 01:25 37.266399 15.221296 131 4054ft 186kts
12-Jul-14 01:26 37.230940 15.241919 209 4404ft 191kts
12-Jul-14 01:27 37.186363 15.202613 215 4505ft 203kts
12-Jul-14 01:28 37.139586 15.161091 215 4503ft 209kts
12-Jul-14 01:29 37.091789 15.118995 215 4502ft 211kts
12-Jul-14 01:30 37.042886 15.078240 213 4505ft 212kts
12-Jul-14 01:31 36.993769 15.036847 215 4517ft 215kts
12-Jul-14 01:32 36.943969 14.993458 215 4533ft 221kts
12-Jul-14 01:33 36.893421 14.949015 215 4550ft 223kts
12-Jul-14 01:34 36.842742 14.904455 215 4559ft 224kts
12-Jul-14 01:35 36.791710 14.859546 214 4562ft 226kts
12-Jul-14 01:36 36.739938 14.814084 214 4561ft 228kts
12-Jul-14 01:37 36.687985 14.768564 214 4561ft 228kts
12-Jul-14 01:38 36.635467 14.722633 214 4561ft 228kts
12-Jul-14 01:39 36.583589 14.677341 214 4561ft 229kts
12-Jul-14 01:40 36.531386 14.631843 214 4561ft 229kts
12-Jul-14 01:41 36.479050 14.586306 214 4561ft 229kts
12-Jul-14 01:42 36.427476 14.541647 215 4561ft 230kts
12-Jul-14 01:43 36.374565 14.496118 216 4561ft 233kts
12-Jul-14 01:44 36.320398 14.451522 216 4561ft 235kts
12-Jul-14 01:45 36.265310 14.407696 216 4561ft 236kts
12-Jul-14 01:46 36.210204 14.364003 216 4561ft 236kts
12-Jul-14 01:47 36.148257 14.366365 158 4562ft 243kts
12-Jul-14 01:48 36.085547 14.398301 158 4561ft 245kts
12-Jul-14 01:49 36.022652 14.430338 158 4561ft 245kts
12-Jul-14 01:50 35.959091 14.461476 159 4415ft 245kts
12-Jul-14 01:51 35.896821 14.491431 159 4070ft 235kts
12-Jul-14 01:52 35.837745 14.519790 159 4068ft 219kts
12-Jul-14 01:53 35.788133 14.558155 133 4040ft 212kts
12-Jul-14 01:54 35.744794 14.612246 133 3564ft 225kts
12-Jul-14 01:55 35.710894 14.675309 91 2844ft 231kts
12-Jul-14 01:56 35.706716 14.753475 91 2547ft 221kts
12-Jul-14 01:57 35.666845 14.757280 263 2555ft 186kts
12-Jul-14 01:58 35.677666 14.704106 310 2549ft 157kts
12-Jul-14 01:59 35.706157 14.665481 315 2550ft 149kts
12-Jul-14 02:00 35.734244 14.630382 316 2546ft 135kts
12-Jul-14 02:01 35.763469 14.594223 316 1852ft 153kts
12-Jul-14 02:02 35.788822 14.562757 316 1682ft 110kts
12-Jul-14 02:03 35.809603 14.537168 316 860ft 104kts
12-Jul-14 02:04 35.829552 14.512118 317 358ft 96kts
12-Jul-14 02:05 35.846033 14.491816 313 303ft 29kts
12-Jul-14 02:06 35.848064 14.489933 333 303ft 3kts
12-Jul-14 02:07 35.849337 14.490440 96 303ft 12kts
12-Jul-14 02:08 35.849944 14.492478 43 303ft 0kts
12-Jul-14 02:09 35.849944 14.492478 43 303ft 0kts

Navigation Log

Ident Type
1. LICC Airport
2. LMML Airport